Time;durP1;ratioP1;P1;durP2;ratioP2;P2;SDS_P1;SDS_P2;PMS_P1;PMS_P2;Temp;Humidity;BMP_temperature;BMP_pressure;BME280_temperature;BME280_humidity;BME280_pressure;Samples;Min_cycle;Max_cycle;Signal;HPM_P1;HPM_P2
2022/09/28 00:01:29;;;;;;;0.52;0.52;;;;;;;23.68;27.82;100147.97;5053074;28;20119;-93
2022/09/28 00:03:58;;;;;;;0.75;0.55;;;;;;;23.66;27.95;100143.88;5096570;28;20401;-93
2022/09/28 00:06:28;;;;;;;0.93;0.50;;;;;;;23.59;28.25;100127.81;5066426;28;20024;-93
2022/09/28 00:08:53;;;;;;;0.50;0.50;;;;;;;23.65;27.83;100143.06;5052238;28;20036;-93
2022/09/28 00:11:20;;;;;;;0.57;0.57;;;;;;;23.67;27.76;100145.50;5049846;28;20020;-92
2022/09/28 00:13:48;;;;;;;0.60;0.60;;;;;;;23.69;27.91;100151.50;5051683;28;20036;-93
2022/09/28 00:16:15;;;;;;;2.70;0.80;;;;;;;23.67;27.73;100156.41;5053533;28;20028;-94
2022/09/28 00:18:41;;;;;;;2.45;0.68;;;;;;;23.60;27.85;100145.81;5053861;28;20028;-94
2022/09/28 00:21:10;;;;;;;1.25;0.80;;;;;;;23.50;27.82;100124.03;5069007;28;20025;-93
2022/09/28 00:24:11;;;;;;;0.60;0.60;;;;;;;23.62;27.97;100138.97;5051552;28;20039;-93
2022/09/28 00:26:25;;;;;;;0.68;0.68;;;;;;;23.59;27.76;100136.00;5084292;28;20400;-93
2022/09/28 00:28:51;;;;;;;1.02;0.60;;;;;;;23.58;28.00;100123.47;5051265;28;20025;-93
2022/09/28 00:31:17;;;;;;;0.50;0.50;;;;;;;23.58;27.73;100137.09;5051758;28;20405;-93
2022/09/28 00:33:43;;;;;;;0.73;0.73;;;;;;;23.55;27.99;100129.47;5070019;28;20099;-93
2022/09/28 00:36:09;;;;;;;0.60;0.60;;;;;;;23.55;27.98;100132.19;5054579;28;20032;-93
2022/09/28 00:38:35;;;;;;;0.70;0.70;;;;;;;23.63;28.03;100132.44;5068914;28;20047;-93
2022/09/28 00:41:01;;;;;;;0.68;0.50;;;;;;;23.63;28.08;100148.78;5069771;28;20028;-94
2022/09/28 00:43:26;;;;;;;0.57;0.57;;;;;;;23.60;28.03;100140.34;5063666;28;20552;-93
2022/09/28 00:46:33;;;;;;;0.73;0.70;;;;;;;23.68;27.74;100147.97;5053308;28;20028;-94
2022/09/28 00:49:02;;;;;;;0.68;0.68;;;;;;;23.56;27.82;100125.63;5087127;28;20427;-93
2022/09/28 00:51:27;;;;;;;1.15;0.70;;;;;;;23.61;27.95;100136.50;5073089;28;20392;-93
2022/09/28 00:53:54;;;;;;;0.85;0.77;;;;;;;23.54;27.99;100133.28;5068436;28;20493;-93
2022/09/28 00:56:20;;;;;;;0.70;0.70;;;;;;;23.52;28.00;100132.75;5057361;28;20024;-94
2022/09/28 00:58:48;;;;;;;0.70;0.70;;;;;;;23.50;27.92;100130.31;5057266;28;20036;-93
2022/09/28 01:01:14;;;;;;;0.65;0.65;;;;;;;23.58;27.93;100145.28;5067118;28;20023;-93
2022/09/28 01:03:44;;;;;;;0.70;0.70;;;;;;;23.38;27.99;100111.53;5089339;28;20024;-92
2022/09/28 01:06:10;;;;;;;0.80;0.80;;;;;;;23.59;28.08;100139.56;5053401;28;20024;-93
2022/09/28 01:08:36;;;;;;;0.65;0.65;;;;;;;23.62;28.01;100136.25;5054753;28;20056;-93
2022/09/28 01:11:02;;;;;;;2.15;0.70;;;;;;;23.59;28.09;100125.06;5056598;28;20125;-92
2022/09/28 01:13:28;;;;;;;0.63;0.63;;;;;;;23.66;27.74;100131.03;5049890;28;20480;-93
2022/09/28 01:16:12;;;;;;;0.65;0.65;;;;;;;23.69;27.55;100132.41;5056698;28;20057;-93
2022/09/28 01:19:22;;;;;;;1.02;0.80;;;;;;;23.66;27.88;100139.22;5072285;28;20032;-92
2022/09/28 01:22:25;;;;;;;2.10;0.70;;;;;;;23.62;28.00;100132.69;5070709;28;20604;-93
2022/09/28 01:25:16;;;;;;;0.75;0.75;;;;;;;23.53;28.01;100131.66;5083047;28;20039;-93
2022/09/28 01:27:43;;;;;;;0.60;0.60;;;;;;;23.48;27.89;100132.50;5073236;28;20462;-92
2022/09/28 01:30:19;;;;;;;1.02;0.77;;;;;;;23.49;27.88;100130.59;5069013;28;20025;-92
2022/09/28 01:33:19;;;;;;;1.20;0.82;;;;;;;23.54;28.03;100136.00;5064683;28;20032;-92
2022/09/28 01:35:50;;;;;;;0.45;0.45;;;;;;;23.62;27.64;100138.16;5082907;28;20543;-92
2022/09/28 01:38:46;;;;;;;1.05;0.80;;;;;;;23.69;27.91;100138.66;5071380;28;20035;-92
2022/09/28 01:41:12;;;;;;;0.95;0.82;;;;;;;23.61;27.78;100117.41;5066352;28;20039;-92
2022/09/28 01:43:39;;;;;;;1.10;0.90;;;;;;;23.57;27.80;100109.00;5083616;28;20111;-92
2022/09/28 01:46:19;;;;;;;0.70;0.70;;;;;;;23.60;27.81;100116.63;5072820;28;20060;-92
2022/09/28 01:48:57;;;;;;;0.60;0.60;;;;;;;23.62;27.94;100127.25;5059159;28;20039;-92
2022/09/28 01:51:36;;;;;;;0.70;0.70;;;;;;;23.60;27.81;100134.91;5059078;28;20036;-92
2022/09/28 01:54:22;;;;;;;0.90;0.80;;;;;;;23.55;27.84;100122.09;5054365;28;20028;-92
2022/09/28 01:56:50;;;;;;;1.75;0.70;;;;;;;23.50;28.11;100126.78;5070541;28;20119;-92
2022/09/28 01:59:27;;;;;;;0.70;0.70;;;;;;;23.48;28.00;100118.06;5053167;28;20504;-92
2022/09/28 02:02:00;;;;;;;1.52;0.85;;;;;;;23.58;27.78;100121.53;5086858;28;20028;-92
2022/09/28 02:05:09;;;;;;;1.20;0.70;;;;;;;23.56;27.89;100106.53;5071793;28;20046;-92
2022/09/28 02:07:46;;;;;;;1.23;0.90;;;;;;;23.56;27.89;100112.00;5063346;28;20048;-92
2022/09/28 02:10:27;;;;;;;0.90;0.68;;;;;;;23.62;27.88;100116.34;5082747;28;20067;-92
2022/09/28 02:13:07;;;;;;;0.60;0.60;;;;;;;23.60;27.78;100110.34;5067261;28;20028;-92
2022/09/28 02:15:52;;;;;;;1.55;0.75;;;;;;;23.61;27.87;100111.97;5073010;28;20238;-92
2022/09/28 02:18:17;;;;;;;0.93;0.80;;;;;;;23.52;27.92;100102.75;5054999;28;20024;-92
2022/09/28 02:21:24;;;;;;;0.63;0.63;;;;;;;23.42;27.84;100084.53;5055947;28;20090;-92
2022/09/28 02:23:56;;;;;;;;;;;;;;;23.61;27.91;100117.41;5082350;28;20059;-92
2022/09/28 02:26:26;;;;;;;1.33;0.82;;;;;;;23.56;27.87;100106.53;5071608;28;19923;-94
2022/09/28 02:28:54;;;;;;;0.90;0.88;;;;;;;23.52;28.00;100102.75;5072174;28;20055;-94
2022/09/28 02:31:19;;;;;;;0.70;0.70;;;;;;;23.52;27.92;100100.03;5053471;28;20123;-93
2022/09/28 02:33:47;;;;;;;1.35;0.80;;;;;;;23.60;28.06;100113.88;5055672;28;20126;-93
2022/09/28 02:36:13;;;;;;;0.82;0.60;;;;;;;23.57;27.72;100113.63;5052891;28;20033;-93
2022/09/28 02:38:39;;;;;;;1.00;0.90;;;;;;;23.50;27.98;100096.78;5088397;28;20075;-93
2022/09/28 02:41:15;;;;;;;1.38;0.93;;;;;;;23.54;27.70;100104.13;5052553;28;20059;-94
2022/09/28 02:43:51;;;;;;;0.80;0.80;;;;;;;23.48;27.87;100101.69;5071316;28;20025;-94
2022/09/28 02:46:27;;;;;;;0.60;0.60;;;;;;;23.55;27.96;100110.38;5061474;28;20036;-93
2022/09/28 02:48:59;;;;;;;0.80;0.80;;;;;;;23.50;27.92;100113.13;5085424;28;20050;-93
2022/09/28 02:51:40;;;;;;;0.98;0.80;;;;;;;23.52;28.02;100114.47;5071985;28;20059;-93
2022/09/28 02:54:50;;;;;;;0.85;0.75;;;;;;;23.52;27.85;100110.94;5082864;28;20118;-93
2022/09/28 02:57:31;;;;;;;0.80;0.80;;;;;;;23.50;28.07;100110.41;5063302;28;20684;-93
2022/09/28 03:00:16;;;;;;;1.15;0.80;;;;;;;23.47;27.88;100097.31;5084557;28;20534;-93
2022/09/28 03:03:19;;;;;;;1.50;0.98;;;;;;;23.51;27.88;100101.09;5069352;28;20020;-93
2022/09/28 03:06:04;;;;;;;0.80;0.80;;;;;;;23.51;27.98;100104.69;5083898;28;20115;-93
2022/09/28 03:08:39;;;;;;;0.80;0.80;;;;;;;23.52;27.84;100111.75;5070914;28;20504;-93
2022/09/28 03:11:08;;;;;;;1.65;0.90;;;;;;;23.53;27.83;100096.22;5061391;28;20028;-93
2022/09/28 03:13:34;;;;;;;0.90;0.73;;;;;;;23.31;27.96;100072.84;5082163;28;20020;-92
2022/09/28 03:16:08;;;;;;;1.70;1.00;;;;;;;23.47;27.81;100095.41;5070983;28;20396;-93
2022/09/28 03:18:33;;;;;;;1.25;0.82;;;;;;;23.45;27.75;100094.88;5053785;28;20031;-93
2022/09/28 03:20:59;;;;;;;0.70;0.70;;;;;;;23.44;28.09;100091.34;5058937;28;20552;-92
2022/09/28 03:23:25;;;;;;;0.68;0.68;;;;;;;23.34;27.83;100083.22;5085159;28;20032;-92
2022/09/28 03:25:50;;;;;;;1.27;0.80;;;;;;;23.44;27.89;100083.16;5053931;28;20046;-93
2022/09/28 03:28:16;;;;;;;1.33;0.77;;;;;;;23.46;27.87;100091.06;5070613;28;20031;-92
2022/09/28 03:30:42;;;;;;;1.30;0.98;;;;;;;23.52;27.88;100097.28;5067169;28;20055;-92
2022/09/28 03:33:10;;;;;;;0.80;0.80;;;;;;;23.53;27.80;100109.84;5069571;28;20054;-92
2022/09/28 03:35:36;;;;;;;1.08;0.70;;;;;;;23.48;28.03;100093.50;5051390;28;20907;-92
2022/09/28 03:38:05;;;;;;;1.10;0.65;;;;;;;23.57;27.77;100103.53;5066102;28;20032;-92
2022/09/28 03:40:30;;;;;;;1.55;0.70;;;;;;;23.47;27.74;100086.41;5087536;28;20115;-92
2022/09/28 03:42:56;;;;;;;0.70;0.70;;;;;;;23.54;27.81;100097.81;5053096;28;20502;-92
2022/09/28 03:45:21;;;;;;;0.82;0.80;;;;;;;23.47;27.72;100094.59;5053516;28;20201;-92
2022/09/28 03:47:47;;;;;;;1.00;0.80;;;;;;;23.44;28.01;100096.78;5066968;28;20123;-92
2022/09/28 03:50:13;;;;;;;0.90;0.90;;;;;;;23.48;27.79;100090.78;5085334;28;20083;-92
2022/09/28 03:52:39;;;;;;;0.80;0.80;;;;;;;23.49;28.03;100095.13;5052259;28;20017;-92
2022/09/28 03:55:05;;;;;;;0.93;0.93;;;;;;;23.48;28.01;100096.25;5061334;28;20016;-92
2022/09/28 03:57:30;;;;;;;0.77;0.77;;;;;;;23.46;27.95;100092.94;5069685;28;20476;-92
2022/09/28 03:59:56;;;;;;;0.95;0.80;;;;;;;23.36;28.07;100080.22;5068379;28;20473;-92
2022/09/28 04:02:21;;;;;;;0.70;0.60;;;;;;;23.36;27.83;100078.28;5053149;28;20089;-92
2022/09/28 04:04:47;;;;;;;1.00;0.90;;;;;;;23.47;27.95;100105.50;5052993;28;20082;-91
2022/09/28 04:07:13;;;;;;;0.80;0.80;;;;;;;23.47;27.76;100094.59;5064495;28;20032;-92
2022/09/28 04:09:38;;;;;;;0.80;0.80;;;;;;;23.53;27.84;100107.13;5087345;28;20551;-92
2022/09/28 04:12:05;;;;;;;0.90;0.90;;;;;;;23.50;27.86;100096.78;5052678;28;20028;-92
2022/09/28 04:14:33;;;;;;;0.73;0.70;;;;;;;23.49;27.72;100084.22;5053167;28;20032;-91
2022/09/28 04:16:58;;;;;;;0.80;0.80;;;;;;;23.50;27.99;100083.13;5070175;28;20016;-93
2022/09/28 04:19:25;;;;;;;0.75;0.75;;;;;;;23.48;27.96;100086.13;5052813;28;20119;-91
2022/09/28 04:21:51;;;;;;;0.82;0.77;;;;;;;23.54;27.92;100084.19;5069023;28;20441;-92
2022/09/28 04:24:17;;;;;;;1.20;0.90;;;;;;;23.55;28.07;100094.81;5066010;28;20054;-92
2022/09/28 04:26:43;;;;;;;1.73;1.00;;;;;;;23.53;28.15;100085.31;5069746;28;20040;-92
2022/09/28 04:29:15;;;;;;;0.98;0.90;;;;;;;23.56;27.93;100085.56;5051099;28;20574;-92
2022/09/28 04:31:44;;;;;;;0.90;0.70;;;;;;;23.62;27.84;100086.34;5070228;28;20024;-92
2022/09/28 04:34:10;;;;;;;0.80;0.80;;;;;;;23.54;27.71;100076.00;5086371;28;20053;-92
2022/09/28 04:36:36;;;;;;;0.80;0.80;;;;;;;23.58;27.57;100083.34;5053164;28;20473;-92
2022/09/28 04:39:02;;;;;;;1.00;0.85;;;;;;;23.56;27.75;100062.91;5053100;28;20052;-93
2022/09/28 04:41:27;;;;;;;2.55;0.80;;;;;;;23.70;27.47;100080.28;5050135;28;20112;-91
2022/09/28 04:43:53;;;;;;;0.70;0.70;;;;;;;23.67;27.72;100074.59;5081998;28;20024;-92
2022/09/28 04:46:19;;;;;;;1.23;0.90;;;;;;;23.64;28.14;100075.94;5052491;28;20051;-78
2022/09/28 04:48:44;;;;;;;1.17;1.08;;;;;;;24.36;26.91;100080.91;5083162;28;20032;-95
2022/09/28 04:51:10;;;;;;;0.90;0.90;;;;;;;24.83;26.20;100076.59;5052921;28;20081;-94
2022/09/28 04:53:36;;;;;;;1.10;0.93;;;;;;;25.03;25.68;100061.09;5049836;28;20619;-95
2022/09/28 04:56:15;;;;;;;2.28;1.10;;;;;;;25.22;25.33;100064.66;5068582;28;20028;-95
2022/09/28 04:58:50;;;;;;;1.40;0.90;;;;;;;25.25;25.28;100047.72;5034842;28;20033;-95
2022/09/28 05:01:17;;;;;;;0.95;0.85;;;;;;;25.44;24.97;100071.50;5041254;28;20029;-95
2022/09/28 05:03:45;;;;;;;0.98;0.90;;;;;;;25.46;25.11;100069.31;5049628;28;20025;-95
2022/09/28 05:06:13;;;;;;;1.10;1.00;;;;;;;25.45;24.76;100064.94;5060991;28;20024;-95
2022/09/28 05:08:39;;;;;;;1.00;0.90;;;;;;;25.51;25.13;100082.94;5047633;28;20025;-95
2022/09/28 05:11:06;;;;;;;1.10;1.00;;;;;;;25.50;24.96;100070.34;5048983;28;20029;-95
2022/09/28 05:13:40;;;;;;;1.33;1.10;;;;;;;25.45;24.76;100063.00;5047296;28;20058;-96
2022/09/28 05:16:08;;;;;;;;;;;;;;;25.57;24.59;100079.00;5050761;28;20538;-93
2022/09/28 05:18:33;;;;;;;1.58;1.05;;;;;;;25.49;24.67;100057.75;5076421;28;19928;-96
2022/09/28 05:21:01;;;;;;;1.83;0.93;;;;;;;25.57;24.63;100064.50;5065253;28;20032;-95
2022/09/28 05:23:30;;;;;;;1.45;0.80;;;;;;;25.61;24.80;100058.16;5046632;28;20100;-96
2022/09/28 05:25:55;;;;;;;1.23;1.05;;;;;;;25.61;24.71;100060.88;5044570;28;20044;-95
2022/09/28 05:28:26;;;;;;;0.90;0.90;;;;;;;25.53;24.74;100039.66;5032900;28;20029;-95
2022/09/28 05:30:51;;;;;;;0.95;0.85;;;;;;;25.65;24.60;100061.09;5047852;28;20082;-95
2022/09/28 05:33:17;;;;;;;2.25;1.00;;;;;;;25.63;24.55;100058.66;5048219;28;20056;-95
2022/09/28 05:35:43;;;;;;;1.27;0.90;;;;;;;25.66;24.58;100066.28;5034672;28;20279;-94
2022/09/28 05:38:08;;;;;;;1.10;1.00;;;;;;;25.56;24.53;100050.03;5063357;28;20024;-95
2022/09/28 05:40:37;;;;;;;1.10;1.00;;;;;;;25.58;24.68;100060.66;5051238;28;20112;-96
2022/09/28 05:43:02;;;;;;;0.93;0.90;;;;;;;25.41;24.58;100039.28;5046950;28;20112;-96
2022/09/28 05:45:32;;;;;;;2.17;1.20;;;;;;;25.59;24.75;100060.34;5050515;28;20116;-96
2022/09/28 05:47:58;;;;;;;1.13;1.02;;;;;;;25.60;24.42;100062.00;5048735;28;20040;-96
2022/09/28 05:50:24;;;;;;;0.80;0.80;;;;;;;25.61;24.67;100057.31;5033736;28;20141;-95
2022/09/28 05:53:03;;;;;;;1.13;0.90;;;;;;;25.66;24.55;100060.81;5065183;28;20105;-95
2022/09/28 05:55:29;;;;;;;1.67;1.02;;;;;;;25.61;24.74;100051.84;5033720;28;20131;-95
2022/09/28 05:57:58;;;;;;;1.13;1.00;;;;;;;25.65;24.73;100067.38;5041305;28;20505;-94
2022/09/28 06:00:25;;;;;;;1.02;0.93;;;;;;;25.57;24.65;100065.31;5035428;28;20024;-94
2022/09/28 06:02:59;;;;;;;2.33;1.02;;;;;;;25.61;24.75;100069.09;5048104;28;20542;-95
2022/09/28 06:05:25;;;;;;;1.00;0.82;;;;;;;25.57;24.50;100068.03;5052459;28;20029;-94
2022/09/28 06:07:51;;;;;;;1.40;1.08;;;;;;;25.53;24.77;100056.06;5045313;28;20135;-95
2022/09/28 06:10:17;;;;;;;1.35;1.00;;;;;;;25.52;24.48;100054.44;5070112;28;20082;-94
2022/09/28 06:12:43;;;;;;;3.60;1.08;;;;;;;25.41;24.76;100034.63;5048047;28;20173;-96
2022/09/28 06:15:09;;;;;;;1.30;0.90;;;;;;;25.59;24.48;100056.81;5067549;28;20378;-95
2022/09/28 06:17:35;;;;;;;1.15;1.05;;;;;;;25.61;24.71;100069.09;5050415;28;20021;-95
2022/09/28 06:20:00;;;;;;;1.27;1.00;;;;;;;25.58;24.52;100056.00;5063460;28;20120;-96
2022/09/28 06:22:26;;;;;;;1.02;0.88;;;;;;;25.65;24.74;100066.59;5035459;28;20142;-95
2022/09/28 06:24:52;;;;;;;1.33;0.95;;;;;;;25.55;24.77;100064.78;5034748;28;20025;-94
2022/09/28 06:27:17;;;;;;;1.25;0.90;;;;;;;25.61;24.91;100060.88;5050321;28;20179;-95
2022/09/28 06:29:43;;;;;;;1.83;1.10;;;;;;;25.56;24.89;100055.50;5052908;28;20079;-95
2022/09/28 06:32:08;;;;;;;1.08;0.93;;;;;;;25.57;24.65;100064.50;5063446;28;20101;-94
2022/09/28 06:34:35;;;;;;;1.02;0.80;;;;;;;25.56;24.73;100063.69;5054340;28;20481;-94
2022/09/28 06:37:03;;;;;;;1.85;1.10;;;;;;;25.57;24.75;100059.84;5042867;28;20490;-96
2022/09/28 06:39:29;;;;;;;1.50;0.80;;;;;;;25.57;24.69;100059.03;5034481;28;20033;-96
2022/09/28 06:41:54;;;;;;;1.27;1.10;;;;;;;25.62;24.63;100067.97;5061955;28;20543;-95
2022/09/28 06:44:20;;;;;;;1.58;0.82;;;;;;;25.57;24.70;100059.84;5063242;28;20386;-95
2022/09/28 06:46:45;;;;;;;1.20;0.90;;;;;;;25.57;24.85;100059.03;5051870;28;20512;-95
2022/09/28 06:49:11;;;;;;;1.08;0.95;;;;;;;25.63;24.83;100057.81;5047171;28;20033;-95
2022/09/28 06:51:37;;;;;;;0.90;0.80;;;;;;;25.56;24.73;100044.53;5052824;28;20029;-94
2022/09/28 06:54:02;;;;;;;1.33;0.88;;;;;;;25.62;24.81;100046.09;5056559;28;20021;-95
2022/09/28 06:56:30;;;;;;;0.88;0.88;;;;;;;25.55;24.70;100051.13;5065037;28;20055;-96
2022/09/28 06:58:56;;;;;;;1.92;1.20;;;;;;;25.51;24.94;100032.84;5052270;28;20076;-95
2022/09/28 07:01:22;;;;;;;1.27;0.95;;;;;;;25.48;24.86;100028.78;5047335;28;20025;-94
2022/09/28 07:03:47;;;;;;;1.10;1.00;;;;;;;25.52;24.92;100051.69;5054032;28;20376;-95
2022/09/28 07:06:13;;;;;;;2.42;1.10;;;;;;;25.48;24.86;100048.75;5033576;28;20477;-96
2022/09/28 07:08:38;;;;;;;1.73;1.08;;;;;;;25.44;25.29;100044.16;5048484;28;20025;-94
2022/09/28 07:11:05;;;;;;;0.80;0.80;;;;;;;25.45;25.28;100051.25;5051302;28;20051;-95
2022/09/28 07:13:34;;;;;;;1.13;0.98;;;;;;;25.40;25.00;100052.13;5044224;28;20473;-95
2022/09/28 07:16:00;;;;;;;0.88;0.88;;;;;;;25.37;25.09;100036.34;5067881;28;20070;-96
2022/09/28 07:18:27;;;;;;;0.80;0.80;;;;;;;25.30;25.25;100033.97;5064135;28;20037;-96
2022/09/28 07:20:58;;;;;;;1.13;0.70;;;;;;;25.37;25.30;100046.44;5049299;28;20421;-96
2022/09/28 07:23:29;;;;;;;1.33;0.90;;;;;;;25.37;25.27;100038.25;5034518;28;20082;-95
2022/09/28 07:25:56;;;;;;;2.03;0.90;;;;;;;25.27;25.31;100031.00;5047098;28;21589;-94
2022/09/28 07:28:22;;;;;;;0.95;0.95;;;;;;;25.22;25.40;100026.38;5053263;28;20028;-94
2022/09/28 07:30:48;;;;;;;1.42;1.00;;;;;;;25.24;25.29;100032.38;5050481;28;20492;-95
2022/09/28 07:33:14;;;;;;;1.30;1.00;;;;;;;25.08;25.12;99998.16;5048541;28;20023;-95
2022/09/28 07:35:41;;;;;;;1.30;0.95;;;;;;;25.21;25.40;100030.22;5048159;28;20051;-94
2022/09/28 07:38:07;;;;;;;1.20;0.95;;;;;;;25.05;25.25;99998.72;5064603;28;20047;-94
2022/09/28 07:43:20;;;;;;;1.30;0.90;;;;;;;25.22;25.21;100039.25;5045467;28;20649;-95
2022/09/28 07:45:51;;;;;;;1.58;1.02;;;;;;;25.36;25.27;100033.91;5036993;28;20071;-93
2022/09/28 07:48:17;;;;;;;1.70;1.10;;;;;;;25.25;25.12;100025.84;5046042;28;20029;-95
2022/09/28 07:51:01;;;;;;;1.48;1.00;;;;;;;25.29;25.32;100040.53;5045052;28;20021;-94
2022/09/28 07:53:27;;;;;;;1.30;1.20;;;;;;;25.21;25.09;100032.94;5049259;28;20119;-94
2022/09/28 07:56:19;;;;;;;1.10;0.88;;;;;;;25.12;25.43;100032.78;5066540;28;20040;-95
2022/09/28 07:58:45;;;;;;;1.35;1.00;;;;;;;25.15;25.58;100030.56;5038035;28;20064;-95
2022/09/28 08:01:14;;;;;;;1.35;1.13;;;;;;;25.18;25.38;100036.28;5042653;28;20063;-94
2022/09/28 08:03:44;;;;;;;1.95;1.10;;;;;;;25.15;25.48;100031.41;5052530;28;20020;-95
2022/09/28 08:06:11;;;;;;;1.30;0.98;;;;;;;25.14;25.34;100018.84;5048446;28;20024;-95
2022/09/28 08:08:42;;;;;;;1.73;0.80;;;;;;;25.25;25.42;100038.63;5056161;28;20380;-96
2022/09/28 08:11:11;;;;;;;1.83;1.10;;;;;;;25.22;25.45;100034.59;5051413;28;20543;-95
2022/09/28 08:13:37;;;;;;;1.10;0.90;;;;;;;25.23;25.63;100027.19;5035854;28;20377;-96
2022/09/28 08:16:02;;;;;;;1.13;0.90;;;;;;;25.25;25.64;100034.03;5029122;28;20037;-96
2022/09/28 08:18:31;;;;;;;1.25;1.15;;;;;;;25.21;25.68;100018.47;5061312;28;20041;-96
2022/09/28 08:23:41;;;;;;;1.17;1.00;;;;;;;25.19;25.77;100015.22;5062935;28;20070;-96
2022/09/28 08:26:06;;;;;;;1.27;0.98;;;;;;;25.17;25.82;100018.25;5029508;28;20068;-94
2022/09/28 08:28:32;;;;;;;1.95;1.08;;;;;;;25.10;25.83;100026.00;5048703;28;20021;-94
2022/09/28 08:30:58;;;;;;;1.00;0.90;;;;;;;25.01;25.62;100011.34;5047715;28;20401;-95
2022/09/28 08:33:24;;;;;;;2.03;1.40;;;;;;;24.93;25.78;100008.16;5047178;28;20024;-95
2022/09/28 08:35:57;;;;;;;1.10;0.90;;;;;;;24.91;25.75;100013.13;5049370;28;20116;-96
2022/09/28 08:38:24;;;;;;;1.10;1.00;;;;;;;24.86;25.79;99996.78;5043936;28;20047;-95
2022/09/28 08:40:56;;;;;;;1.00;0.90;;;;;;;25.07;26.04;100023.84;5049374;28;20043;-93
2022/09/28 08:43:43;;;;;;;1.38;1.20;;;;;;;25.07;25.79;100027.38;5062074;28;20123;-95
2022/09/28 08:46:09;;;;;;;1.08;0.98;;;;;;;25.02;25.73;100026.66;5098943;28;20389;-96
2022/09/28 08:49:00;;;;;;;1.90;1.20;;;;;;;24.99;25.89;100024.50;5046526;28;20036;-95
2022/09/28 08:51:45;;;;;;;2.05;1.10;;;;;;;24.83;26.17;100012.94;5064098;28;20509;-95
2022/09/28 08:54:32;;;;;;;1.83;1.10;;;;;;;24.80;26.22;100014.34;5048607;28;20485;-96
2022/09/28 08:57:06;;;;;;;2.22;0.90;;;;;;;24.59;26.33;99999.28;5078565;28;20028;-92
2022/09/28 08:59:51;;;;;;;1.20;0.93;;;;;;;24.61;26.52;100016.22;5050365;28;20024;-94
2022/09/28 09:02:45;;;;;;;0.80;0.70;;;;;;;24.48;26.66;100017.69;5060906;28;20111;-95
2022/09/28 09:05:15;;;;;;;1.30;1.00;;;;;;;24.40;26.49;100010.94;5066430;28;20033;-94
2022/09/28 09:07:55;;;;;;;1.77;1.00;;;;;;;24.49;26.83;100013.84;5043031;28;20040;-94
2022/09/28 09:10:30;;;;;;;4.63;0.90;;;;;;;24.55;26.83;100021.72;5055706;28;20389;-95
2022/09/28 09:13:34;;;;;;;1.05;0.95;;;;;;;24.64;26.38;100015.63;5068186;28;20119;-94
2022/09/28 09:16:27;;;;;;;1.35;1.10;;;;;;;24.63;26.48;100008.53;5082445;28;20078;-95
2022/09/28 09:19:44;;;;;;;1.05;0.90;;;;;;;24.66;26.79;100019.69;5051374;28;20040;-94
2022/09/28 09:22:16;;;;;;;1.60;1.02;;;;;;;24.57;27.02;100020.63;5079285;28;20033;-95
2022/09/28 09:24:50;;;;;;;0.98;0.88;;;;;;;24.45;26.92;100004.59;5066210;28;20028;-94
2022/09/28 09:27:49;;;;;;;1.15;1.00;;;;;;;24.45;26.66;100012.81;5065686;28;20146;-94
2022/09/28 09:30:19;;;;;;;1.05;0.95;;;;;;;24.28;26.94;99997.66;5069204;28;20028;-94
2022/09/28 09:33:06;;;;;;;1.20;0.90;;;;;;;24.34;27.08;100009.38;5066562;28;20381;-94
2022/09/28 09:35:36;;;;;;;1.20;0.95;;;;;;;24.35;26.91;100009.09;5069614;28;20020;-95
2022/09/28 09:38:01;;;;;;;0.80;0.80;;;;;;;24.40;26.79;100007.41;5067400;28;20115;-94
2022/09/28 09:40:53;;;;;;;1.50;1.05;;;;;;;24.41;26.93;100001.66;5070223;28;20063;-94
2022/09/28 09:43:46;;;;;;;1.02;0.93;;;;;;;24.44;26.74;99995.59;5064156;28;20033;-95
2022/09/28 09:46:41;;;;;;;2.40;0.77;;;;;;;24.50;26.84;99993.63;5067512;28;20435;-94
2022/09/28 09:49:30;;;;;;;1.08;0.98;;;;;;;24.49;27.06;99990.09;5065751;28;20222;-95
2022/09/28 09:51:59;;;;;;;1.58;1.05;;;;;;;24.37;27.03;99982.28;5082864;28;20075;-94
2022/09/28 09:54:41;;;;;;;1.27;0.98;;;;;;;24.40;27.10;99989.09;5066900;28;20036;-95
2022/09/28 09:57:17;;;;;;;0.93;0.80;;;;;;;24.32;27.35;99984.28;5051442;28;20042;-95
2022/09/28 09:59:46;;;;;;;1.38;1.00;;;;;;;24.16;27.33;99965.31;5069432;28;20025;-95
2022/09/28 10:02:21;;;;;;;1.13;0.90;;;;;;;24.15;27.22;99977.34;5051573;28;20020;-95
2022/09/28 10:04:47;;;;;;;0.93;0.80;;;;;;;24.06;27.41;99965.41;5052546;28;20404;-94
2022/09/28 10:07:36;;;;;;;0.95;0.93;;;;;;;24.13;27.19;99971.34;5033924;28;20861;-95
2022/09/28 10:10:09;;;;;;;0.98;0.90;;;;;;;24.00;27.66;99958.38;5067894;28;20032;-95
2022/09/28 10:12:35;;;;;;;0.80;0.80;;;;;;;24.01;27.50;99954.56;5034444;28;20617;-95
2022/09/28 10:15:01;;;;;;;0.90;0.90;;;;;;;24.04;27.54;99959.41;5066861;28;20274;-94
2022/09/28 10:17:26;;;;;;;0.70;0.70;;;;;;;24.07;27.69;99960.75;5063027;28;20029;-95
2022/09/28 10:19:58;;;;;;;1.23;0.95;;;;;;;23.96;27.63;99951.88;5034747;28;20031;-95
2022/09/28 10:22:25;;;;;;;2.60;1.15;;;;;;;23.99;27.82;99973.09;5050030;28;20189;-94
2022/09/28 10:24:53;;;;;;;1.00;0.90;;;;;;;23.88;27.67;99961.47;5047336;28;20040;-94
2022/09/28 10:27:22;;;;;;;1.08;0.82;;;;;;;23.88;27.57;99960.66;5051552;28;20036;-95
2022/09/28 10:30:07;;;;;;;2.15;1.10;;;;;;;23.88;27.54;99963.41;5043554;28;20515;-95
2022/09/28 10:32:43;;;;;;;0.70;0.70;;;;;;;23.79;27.97;99963.97;5061837;28;20295;-94
2022/09/28 10:35:23;;;;;;;1.95;0.70;;;;;;;23.84;27.75;99956.91;5035275;28;20469;-95
2022/09/28 10:38:27;;;;;;;1.08;1.00;;;;;;;23.93;27.89;99964.16;5035821;28;20101;-95
2022/09/28 10:40:54;;;;;;;1.30;1.00;;;;;;;23.94;27.82;99959.50;5068421;28;20040;-95
2022/09/28 10:43:34;;;;;;;2.35;1.00;;;;;;;24.01;27.77;99957.28;5050060;28;20528;-95
2022/09/28 10:46:13;;;;;;;1.77;0.93;;;;;;;23.99;27.72;99948.53;5051367;28;20389;-94
2022/09/28 10:49:03;;;;;;;1.00;0.90;;;;;;;23.89;27.77;99941.28;5053502;28;20067;-95
2022/09/28 10:51:56;;;;;;;1.23;0.80;;;;;;;23.88;27.65;99952.50;5051225;28;20038;-94
2022/09/28 10:54:26;;;;;;;2.30;1.00;;;;;;;23.84;27.74;99960.44;5049772;28;20047;-93
2022/09/28 10:56:53;;;;;;;0.90;0.90;;;;;;;23.70;27.97;99943.88;5065691;28;20020;-94
2022/09/28 10:59:28;;;;;;;0.98;0.90;;;;;;;23.69;27.93;99942.25;5045744;28;20052;-95
2022/09/28 11:02:03;;;;;;;0.98;0.88;;;;;;;23.66;28.19;99926.44;5060086;28;20036;-94
2022/09/28 11:04:53;;;;;;;0.75;0.75;;;;;;;23.63;28.13;99937.94;5049070;28;20036;-94
2022/09/28 11:07:23;;;;;;;1.33;1.00;;;;;;;23.62;28.00;99934.38;5063382;28;20393;-94
2022/09/28 11:09:49;;;;;;;2.05;0.80;;;;;;;23.52;28.12;99917.28;5035465;28;20552;-95
2022/09/28 11:12:22;;;;;;;1.10;1.00;;;;;;;23.51;27.82;99910.19;5051048;28;20039;-95
2022/09/28 11:14:51;;;;;;;0.93;0.90;;;;;;;23.72;27.99;99930.75;5065244;28;20086;-95
2022/09/28 11:17:40;;;;;;;1.40;1.00;;;;;;;23.77;28.06;99924.47;5039613;28;20536;-96
2022/09/28 11:20:22;;;;;;;1.15;1.00;;;;;;;23.86;28.09;99941.06;5049852;28;20024;-94
2022/09/28 11:22:47;;;;;;;0.82;0.70;;;;;;;23.72;28.06;99930.75;5065798;28;20036;-95
2022/09/28 11:25:20;;;;;;;0.82;0.75;;;;;;;23.80;28.15;99938.34;5031393;28;20167;-95
2022/09/28 11:27:51;;;;;;;1.60;0.85;;;;;;;23.74;28.08;99950.38;5066681;28;20087;-95
2022/09/28 11:30:23;;;;;;;1.42;1.10;;;;;;;23.61;28.04;99938.22;5068659;28;20021;-94
2022/09/28 11:32:52;;;;;;;1.20;0.90;;;;;;;23.47;28.43;99925.53;5033216;28;20036;-95
2022/09/28 11:35:22;;;;;;;1.63;0.90;;;;;;;23.50;28.28;99936.66;5034823;28;20501;-95
2022/09/28 11:37:54;;;;;;;1.42;1.00;;;;;;;23.51;28.49;99945.66;5040427;28;20102;-95
2022/09/28 11:40:41;;;;;;;1.92;1.10;;;;;;;23.48;28.57;99932.63;5065743;28;20024;-96
2022/09/28 11:43:12;;;;;;;0.90;0.90;;;;;;;23.52;28.53;99941.84;5027526;28;20119;-95
2022/09/28 11:45:51;;;;;;;1.02;0.93;;;;;;;23.58;28.71;99944.25;5063013;28;20027;-95
2022/09/28 11:48:20;;;;;;;1.33;1.00;;;;;;;23.57;28.34;99918.06;5067149;28;20037;-95
2022/09/28 11:50:56;;;;;;;0.80;0.80;;;;;;;23.75;28.41;99930.19;5048396;28;21204;-95
2022/09/28 11:53:48;;;;;;;1.08;0.88;;;;;;;23.83;28.36;99931.50;5033741;28;20533;-95
2022/09/28 11:56:26;;;;;;;1.73;0.98;;;;;;;23.91;28.15;99930.09;5033581;28;20031;-95